KGCK/GCK METAR and TAF weather

Enter ICAO airport designator
Station Type Date Time Source
KGCK METAR 2022/01/23 11:54 UTC NOAA

KGCK 231154Z AUTO 27007KT 10SM CLR M04/M08 A3018 RMK AO2 SLP236 T10441078 10017 21050 54000 $


Station Type Date Time Source
KGCK Decoded METAR 2022/01/23 11:54 UTC NOAA

GARDEN CITY REGIONAL AIRPORT, KS, United States (KGCK) 37-55N 100-43W 877M
Jan 23, 2022 - 06:54 AM EST / 2022.01.23 1154 UTC
Wind: from the W (270 degrees) at 8 MPH (7 KT):0
Visibility: 10 mile(s):0
Sky conditions: clear
Temperature: 24.1 F (-4.4 C)
Windchill: 15 F (-9 C):1
Dew Point: 18.0 F (-7.8 C)
Relative Humidity: 77%
Pressure (altimeter): 30.18 in. Hg (1022 hPa)
Pressure tendency: the same as three hours ago
ob: KGCK 231154Z AUTO 27007KT 10SM CLR M04/M08 A3018 RMK AO2 SLP236 T10441078 10017 21050 54000
cycle: 12

Station Type Date Time Source
KGCK TAF 2022/01/23 12:27 UTC NOAA

KGCK 231124Z 2312/2412 29010KT P6SM SKC

Example: see airport list